createdAt,value
2019-01-26T00:01:14.052Z,39.07
2019-01-26T00:03:42.638Z,42.30
2019-01-26T00:06:11.230Z,40.53
2019-01-26T00:08:39.832Z,41.13
2019-01-26T00:11:08.410Z,38.47
2019-01-26T00:13:37.016Z,36.67
2019-01-26T00:16:05.604Z,41.27
2019-01-26T00:18:34.203Z,40.03
2019-01-26T00:21:02.776Z,39.30
2019-01-26T00:23:31.393Z,39.43
2019-01-26T00:26:00.009Z,42.93
2019-01-26T00:28:28.609Z,39.23
2019-01-26T00:30:57.186Z,37.63
2019-01-26T00:33:25.791Z,38.77
2019-01-26T00:35:54.431Z,41.07
2019-01-26T00:38:23.017Z,42.73
2019-01-26T00:40:51.605Z,41.77
2019-01-26T00:43:20.196Z,41.57
2019-01-26T00:45:48.811Z,37.00
2019-01-26T00:48:17.386Z,41.87
2019-01-26T00:50:45.989Z,48.80
2019-01-26T00:53:14.589Z,48.37
2019-01-26T00:55:43.188Z,53.27
2019-01-26T00:58:11.849Z,47.43
2019-01-26T01:00:40.515Z,58.40
2019-01-26T01:03:09.133Z,44.10
2019-01-26T01:05:37.727Z,48.23
2019-01-26T01:08:06.298Z,47.87
2019-01-26T01:10:34.923Z,48.63
2019-01-26T01:13:03.465Z,46.63
2019-01-26T01:15:32.133Z,48.07
2019-01-26T01:18:00.747Z,46.97
2019-01-26T01:20:29.423Z,52.43
2019-01-26T01:22:58.009Z,52.13
2019-01-26T01:25:26.644Z,49.53
2019-01-26T01:27:55.235Z,59.13
2019-01-26T01:30:24.698Z,57.77
2019-01-26T01:32:53.683Z,58.67
2019-01-26T01:35:22.318Z,55.60
2019-01-26T01:37:50.878Z,53.07
2019-01-26T01:40:19.560Z,62.23
2019-01-26T01:42:48.694Z,59.93
2019-01-26T01:45:24.844Z,52.37
2019-01-26T01:47:53.429Z,63.80
2019-01-26T01:50:22.048Z,59.37
2019-01-26T01:52:50.641Z,66.90
2019-01-26T01:55:19.257Z,54.63
2019-01-26T01:57:47.832Z,53.97
2019-01-26T02:00:19.616Z,54.20
2019-01-26T02:02:48.636Z,54.17
2019-01-26T02:05:17.534Z,52.07
2019-01-26T02:07:46.325Z,49.13
2019-01-26T02:10:17.855Z,49.27
2019-01-26T02:12:46.515Z,57.20
2019-01-26T02:15:15.205Z,51.50
2019-01-26T02:17:43.962Z,53.57
2019-01-26T02:20:18.599Z,53.93
2019-01-26T02:22:47.258Z,50.63
2019-01-26T02:25:16.159Z,52.10
2019-01-26T02:27:44.702Z,56.97
2019-01-26T02:30:16.496Z,51.73
2019-01-26T02:32:45.123Z,44.07
2019-01-26T02:35:13.879Z,53.37
2019-01-26T02:37:42.540Z,57.53
2019-01-26T02:40:14.170Z,54.10
2019-01-26T02:42:42.769Z,51.60
2019-01-26T02:45:13.413Z,53.63
2019-01-26T02:47:41.999Z,57.17
2019-01-26T02:50:13.256Z,54.67
2019-01-26T02:52:42.003Z,54.20
2019-01-26T02:55:10.961Z,53.20
2019-01-26T02:57:39.626Z,53.37
2019-01-26T03:00:17.243Z,52.50
2019-01-26T03:02:45.826Z,63.33
2019-01-26T03:05:14.687Z,60.23
2019-01-26T03:07:43.330Z,51.73
2019-01-26T03:10:14.796Z,54.53
2019-01-26T03:12:43.715Z,53.73
2019-01-26T03:15:15.264Z,51.23
2019-01-26T03:17:43.852Z,54.97
2019-01-26T03:20:14.687Z,52.40
2019-01-26T03:22:43.563Z,57.83
2019-01-26T03:25:14.137Z,54.93
2019-01-26T03:27:42.725Z,52.33
2019-01-26T03:30:23.133Z,50.50
2019-01-26T03:32:52.071Z,54.77
2019-01-26T03:35:21.040Z,49.87
2019-01-26T03:37:49.639Z,54.77
2019-01-26T03:40:20.400Z,55.80
2019-01-26T03:42:49.145Z,53.80
2019-01-26T03:45:17.991Z,55.57
2019-01-26T03:47:47.020Z,51.20
2019-01-26T03:50:16.479Z,56.60
2019-01-26T03:52:45.166Z,56.77
2019-01-26T03:55:19.989Z,52.90
2019-01-26T03:57:48.576Z,52.13
2019-01-26T04:00:20.009Z,57.57
2019-01-26T04:02:48.987Z,58.87
2019-01-26T04:05:17.849Z,48.43
2019-01-26T04:07:46.510Z,54.67
2019-01-26T04:10:16.234Z,54.67
2019-01-26T04:12:45.258Z,58.53
2019-01-26T04:15:18.559Z,56.03
2019-01-26T04:17:47.615Z,51.37
2019-01-26T04:20:18.253Z,50.10
2019-01-26T04:22:47.224Z,55.03
2019-01-26T04:25:16.397Z,59.70
2019-01-26T04:27:45.083Z,54.63
2019-01-26T04:30:19.162Z,54.67
2019-01-26T04:32:47.881Z,60.40
2019-01-26T04:35:16.515Z,63.53
2019-01-26T04:37:45.109Z,58.27
2019-01-26T04:40:15.831Z,52.17
2019-01-26T04:42:44.519Z,57.20
2019-01-26T04:45:15.840Z,54.70
2019-01-26T04:47:44.433Z,64.27
2019-01-26T04:50:15.767Z,57.73
2019-01-26T04:52:44.350Z,61.43
2019-01-26T04:55:13.270Z,54.47
2019-01-26T04:57:41.868Z,58.47
2019-01-26T05:00:19.136Z,61.87
2019-01-26T05:02:47.777Z,54.57
2019-01-26T05:05:16.366Z,56.40
2019-01-26T05:07:44.945Z,62.00
2019-01-26T05:10:16.279Z,59.10
2019-01-26T05:12:44.877Z,60.07
2019-01-26T05:15:14.936Z,62.60
2019-01-26T05:17:43.665Z,57.23
2019-01-26T05:20:15.296Z,61.03
2019-01-26T05:22:43.902Z,61.20
2019-01-26T05:25:12.606Z,51.30
2019-01-26T05:27:41.210Z,58.00
2019-01-26T05:30:24.224Z,62.97
2019-01-26T05:32:52.816Z,61.87
2019-01-26T05:35:21.403Z,61.63
2019-01-26T05:37:50.007Z,56.83
2019-01-26T05:40:19.315Z,57.87
2019-01-26T05:42:48.282Z,63.77
2019-01-26T05:45:19.285Z,60.87
2019-01-26T05:47:49.602Z,65.27
2019-01-26T05:50:22.930Z,55.90
2019-01-26T05:52:51.559Z,60.37
2019-01-26T05:55:20.160Z,59.77
2019-01-26T05:57:48.779Z,58.73
2019-01-26T06:00:24.968Z,61.13
2019-01-26T06:02:53.554Z,56.13
2019-01-26T06:05:22.330Z,72.87
2019-01-26T06:07:50.936Z,61.83
2019-01-26T06:10:19.596Z,52.83
2019-01-26T06:12:48.208Z,59.33
2019-01-26T06:15:16.886Z,66.60
2019-01-26T06:17:45.481Z,74.47
2019-01-26T06:20:17.358Z,68.57
2019-01-26T06:22:46.044Z,68.43
2019-01-26T06:25:21.536Z,69.03
2019-01-26T06:27:50.138Z,65.00
2019-01-26T06:30:21.601Z,74.03
2019-01-26T06:32:50.282Z,65.30
2019-01-26T06:35:18.856Z,70.23
2019-01-26T06:37:47.470Z,75.93
2019-01-26T06:40:18.068Z,70.80
2019-01-26T06:42:46.669Z,76.17
2019-01-26T06:45:20.229Z,81.20
2019-01-26T06:47:48.905Z,61.73
2019-01-26T06:50:21.464Z,69.20
2019-01-26T06:52:50.187Z,71.10
2019-01-26T06:55:19.056Z,68.60
2019-01-26T06:57:47.740Z,69.20
2019-01-26T07:00:26.153Z,80.57
2019-01-26T07:02:55.453Z,78.23
2019-01-26T07:05:41.443Z,75.83
2019-01-26T07:08:11.706Z,86.77
2019-01-26T07:10:40.303Z,75.07
2019-01-26T07:13:08.897Z,87.77
2019-01-26T07:15:37.477Z,84.33
2019-01-26T07:18:09.514Z,95.47
2019-01-26T07:20:36.305Z,93.53
2019-01-26T07:23:05.251Z,70.60
2019-01-26T07:25:34.029Z,84.17
2019-01-26T07:28:02.690Z,90.17
2019-01-26T07:30:31.362Z,99.50
2019-01-26T07:32:59.959Z,71.83
2019-01-26T07:35:28.637Z,77.60
2019-01-26T07:37:57.288Z,83.97
2019-01-26T07:40:25.970Z,116.30
2019-01-26T07:42:54.586Z,109.83
2019-01-26T07:45:23.522Z,77.93
2019-01-26T07:47:52.111Z,101.70
2019-01-26T07:50:23.571Z,72.20
2019-01-26T07:52:52.113Z,106.10
2019-01-26T07:55:20.874Z,106.87
2019-01-26T07:57:49.459Z,108.97
2019-01-26T08:00:21.188Z,136.07
2019-01-26T08:02:49.845Z,112.93
2019-01-26T08:05:18.899Z,133.73
2019-01-26T08:07:47.660Z,119.10
2019-01-26T08:10:18.829Z,121.47
2019-01-26T08:12:47.582Z,120.17
2019-01-26T08:15:19.070Z,104.77
2019-01-26T08:17:47.729Z,121.50
2019-01-26T08:20:19.063Z,125.57
2019-01-26T08:22:48.095Z,131.10
2019-01-26T08:25:16.883Z,118.63
2019-01-26T08:27:45.556Z,107.90
2019-01-26T08:30:19.118Z,101.87
2019-01-26T08:32:47.843Z,100.97
2019-01-26T08:35:16.825Z,139.60
2019-01-26T08:37:45.412Z,154.13
2019-01-26T08:40:16.264Z,114.23
2019-01-26T08:42:44.870Z,102.60
2019-01-26T08:45:14.920Z,78.17
2019-01-26T08:47:44.110Z,85.90
2019-01-26T08:50:17.897Z,126.90
2019-01-26T08:52:46.624Z,98.00
2019-01-26T08:55:18.240Z,96.43
2019-01-26T08:57:45.760Z,79.47
2019-01-26T09:00:18.852Z,92.83
2019-01-26T09:02:55.690Z,110.37
2019-01-26T09:05:38.428Z,108.03
2019-01-26T09:08:07.010Z,116.23
2019-01-26T09:10:35.633Z,102.47
2019-01-26T09:13:04.400Z,89.40
2019-01-26T09:15:33.002Z,94.90
2019-01-26T09:18:01.957Z,88.37
2019-01-26T09:20:30.572Z,80.00
2019-01-26T09:22:59.171Z,100.00
2019-01-26T09:25:28.101Z,88.23
2019-01-26T09:27:57.384Z,86.53
2019-01-26T09:30:26.000Z,79.40
2019-01-26T09:32:54.579Z,83.40
2019-01-26T09:35:23.187Z,84.13
2019-01-26T09:37:51.776Z,71.63
2019-01-26T09:40:23.905Z,69.47
2019-01-26T09:42:52.795Z,66.30
2019-01-26T09:45:21.884Z,74.60
2019-01-26T09:47:50.461Z,50.47
2019-01-26T09:50:20.504Z,64.80
2019-01-26T09:52:49.270Z,64.53
2019-01-26T09:55:21.963Z,70.08
2019-01-26T09:57:50.813Z,48.90
2019-01-26T10:00:26.504Z,53.40
2019-01-26T10:02:55.210Z,47.00
2019-01-26T10:05:23.871Z,44.37
2019-01-26T10:07:52.471Z,46.57
2019-01-26T10:10:21.895Z,38.77
2019-01-26T10:12:51.048Z,38.03
2019-01-26T10:15:25.980Z,37.60
2019-01-26T10:17:55.203Z,30.90
2019-01-26T10:20:29.584Z,33.77
2019-01-26T10:22:58.184Z,28.50
2019-01-26T10:25:26.841Z,28.57
2019-01-26T10:27:55.449Z,33.93
2019-01-26T10:30:34.606Z,36.03
2019-01-26T10:33:03.975Z,32.10
2019-01-26T10:35:40.348Z,35.20
2019-01-26T10:38:08.952Z,39.93
2019-01-26T10:40:39.260Z,32.77
2019-01-26T10:43:08.155Z,27.23
2019-01-26T10:45:36.910Z,31.67
2019-01-26T10:48:05.694Z,30.60
2019-01-26T10:50:34.281Z,27.67
2019-01-26T10:53:02.889Z,24.97
2019-01-26T10:55:31.474Z,26.37
2019-01-26T10:58:00.083Z,26.53
2019-01-26T11:00:29.005Z,23.43
2019-01-26T11:02:57.620Z,24.20
2019-01-26T11:05:26.201Z,29.40
2019-01-26T11:07:54.817Z,28.67
2019-01-26T11:10:23.557Z,28.43
2019-01-26T11:12:52.163Z,26.73
2019-01-26T11:15:20.815Z,24.07
2019-01-26T11:17:49.503Z,24.17
2019-01-26T11:20:18.250Z,24.47
2019-01-26T11:22:46.868Z,25.67
2019-01-26T11:25:15.804Z,24.23
2019-01-26T11:27:44.512Z,26.93
2019-01-26T11:30:16.734Z,26.73
2019-01-26T11:32:45.339Z,21.17
2019-01-26T11:35:15.663Z,23.03
2019-01-26T11:37:44.261Z,21.37
2019-01-26T11:40:17.538Z,21.53
2019-01-26T11:42:46.143Z,19.17
2019-01-26T11:45:29.446Z,22.37
2019-01-26T11:48:00.123Z,22.30
2019-01-26T11:50:33.681Z,22.60
2019-01-26T11:53:02.290Z,18.60
2019-01-26T11:55:32.499Z,18.93
2019-01-26T11:58:01.108Z,19.37
2019-01-26T12:00:38.419Z,21.53
2019-01-26T12:03:08.987Z,19.03
2019-01-26T12:05:42.104Z,18.40
2019-01-26T12:08:10.767Z,18.27
2019-01-26T12:10:39.311Z,20.73
2019-01-26T12:13:07.911Z,22.13
2019-01-26T12:15:36.497Z,16.13
2019-01-26T12:18:05.181Z,15.83
2019-01-26T12:20:33.768Z,16.23
2019-01-26T12:23:02.660Z,15.73
2019-01-26T12:25:31.339Z,15.87
2019-01-26T12:27:59.925Z,16.17
2019-01-26T12:30:28.708Z,13.57
2019-01-26T12:32:57.614Z,17.90
2019-01-26T12:35:26.227Z,14.17
2019-01-26T12:37:54.800Z,15.23
2019-01-26T12:40:23.521Z,18.93
2019-01-26T12:42:52.094Z,18.87
2019-01-26T12:45:21.749Z,12.57
2019-01-26T12:47:50.397Z,16.07
2019-01-26T12:50:18.997Z,14.10
2019-01-26T12:52:47.749Z,12.87
2019-01-26T12:55:17.607Z,12.63
2019-01-26T12:57:46.250Z,9.27
2019-01-26T13:00:20.318Z,8.63
2019-01-26T13:02:49.470Z,9.37
2019-01-26T13:05:18.229Z,8.77
2019-01-26T13:07:47.412Z,7.73
2019-01-26T13:10:25.129Z,6.90
2019-01-26T13:12:54.075Z,8.47
2019-01-26T13:15:22.681Z,5.97
2019-01-26T13:17:51.325Z,7.27
2019-01-26T13:20:19.998Z,8.13
2019-01-26T13:22:48.571Z,6.53
2019-01-26T13:25:20.463Z,6.67
2019-01-26T13:27:49.391Z,5.73
2019-01-26T13:30:22.876Z,6.00
2019-01-26T13:32:51.454Z,4.80
2019-01-26T13:35:20.231Z,5.23
2019-01-26T13:37:48.977Z,6.03
2019-01-26T13:40:26.235Z,3.73
2019-01-26T13:42:55.239Z,5.00
2019-01-26T13:45:24.017Z,5.97
2019-01-26T13:47:53.135Z,6.70
2019-01-26T13:50:21.741Z,3.87
2019-01-26T13:52:50.350Z,6.17
2019-01-26T13:55:20.789Z,5.53
2019-01-26T13:57:49.536Z,4.20
2019-01-26T14:00:26.973Z,3.63
2019-01-26T14:02:55.737Z,4.13
2019-01-26T14:05:24.863Z,5.30
2019-01-26T14:07:53.510Z,3.47
2019-01-26T14:10:23.951Z,4.67
2019-01-26T14:12:52.687Z,4.67
2019-01-26T14:15:22.732Z,4.57
2019-01-26T14:17:51.378Z,4.07
2019-01-26T14:20:23.055Z,3.27
2019-01-26T14:22:51.849Z,4.53
2019-01-26T14:25:20.475Z,5.60
2019-01-26T14:27:49.215Z,6.83
2019-01-26T14:30:32.832Z,4.30
2019-01-26T14:33:01.484Z,4.40
2019-01-26T14:35:30.098Z,4.03
2019-01-26T14:37:59.087Z,4.43
2019-01-26T14:40:27.700Z,5.27
2019-01-26T14:43:14.732Z,4.03
2019-01-26T14:45:43.337Z,3.97
2019-01-26T14:48:11.922Z,4.10
2019-01-26T14:50:40.528Z,3.63
2019-01-26T14:53:09.232Z,5.53
2019-01-26T14:55:37.892Z,5.93
2019-01-26T14:58:06.631Z,4.07
2019-01-26T15:00:37.479Z,4.73
2019-01-26T15:03:06.131Z,4.83
2019-01-26T15:05:35.019Z,5.07
2019-01-26T15:08:03.724Z,4.50
2019-01-26T15:10:32.333Z,5.37
2019-01-26T15:13:01.021Z,5.03
2019-01-26T15:15:29.591Z,4.83
2019-01-26T15:17:58.185Z,5.10
2019-01-26T15:20:32.444Z,5.23
2019-01-26T15:23:01.102Z,6.03
2019-01-26T15:25:29.677Z,4.57
2019-01-26T15:27:58.283Z,5.60
2019-01-26T15:30:31.964Z,5.60
2019-01-26T15:33:00.644Z,5.63
2019-01-26T15:35:29.215Z,6.47
2019-01-26T15:37:57.888Z,4.80
2019-01-26T15:40:26.483Z,4.90
2019-01-26T15:42:55.084Z,5.40
2019-01-26T15:45:35.443Z,5.93
2019-01-26T15:48:04.683Z,6.40
2019-01-26T15:50:33.333Z,8.17
2019-01-26T15:53:02.094Z,6.93
2019-01-26T15:55:31.213Z,7.27
2019-01-26T15:57:59.965Z,7.50
2019-01-26T16:00:40.216Z,9.10
2019-01-26T16:03:09.156Z,9.47
2019-01-26T16:05:37.983Z,11.80
2019-01-26T16:08:07.334Z,6.77
2019-01-26T16:10:36.885Z,7.03
2019-01-26T16:13:06.319Z,6.93
2019-01-26T16:15:37.431Z,6.97
2019-01-26T16:18:08.700Z,8.10
2019-01-26T16:20:37.278Z,7.30
2019-01-26T16:23:09.570Z,6.80
2019-01-26T16:25:36.631Z,8.20
2019-01-26T16:28:05.440Z,9.07
2019-01-26T16:30:34.433Z,9.10
2019-01-26T16:33:03.004Z,6.60
2019-01-26T16:35:31.560Z,8.60
2019-01-26T16:38:00.344Z,11.10
2019-01-26T16:40:34.147Z,7.70
2019-01-26T16:43:02.760Z,8.10
2019-01-26T16:45:37.845Z,9.10
2019-01-26T16:48:08.633Z,10.17
2019-01-26T16:50:37.431Z,12.97
2019-01-26T16:53:06.073Z,15.97
2019-01-26T16:55:34.656Z,10.73
2019-01-26T16:58:03.508Z,10.90
2019-01-26T17:00:40.164Z,12.57
2019-01-26T17:03:08.906Z,10.03
2019-01-26T17:05:37.897Z,7.83
2019-01-26T17:08:07.240Z,9.10
2019-01-26T17:10:36.073Z,9.37
2019-01-26T17:13:05.012Z,10.00
2019-01-26T17:15:33.671Z,10.30
2019-01-26T17:18:02.457Z,13.57
2019-01-26T17:20:36.287Z,13.40
2019-01-26T17:23:05.358Z,10.57
2019-01-26T17:25:34.015Z,9.30
2019-01-26T17:28:03.175Z,9.03
2019-01-26T17:30:35.017Z,11.13
2019-01-26T17:33:07.645Z,11.30
2019-01-26T17:35:34.164Z,12.17
2019-01-26T17:38:02.860Z,10.33
2019-01-26T17:40:31.434Z,11.13
2019-01-26T17:43:00.149Z,12.60
2019-01-26T17:45:28.732Z,13.63
2019-01-26T17:47:57.429Z,13.60
2019-01-26T17:50:28.237Z,15.30
2019-01-26T17:52:56.929Z,14.43
2019-01-26T17:55:25.781Z,14.43
2019-01-26T17:57:54.522Z,17.83
2019-01-26T18:00:36.147Z,20.00
2019-01-26T18:03:06.907Z,16.50
2019-01-26T18:05:35.816Z,16.40
2019-01-26T18:08:04.601Z,17.00
2019-01-26T18:10:33.812Z,15.13
2019-01-26T18:13:02.464Z,15.80
2019-01-26T18:15:31.489Z,17.73
2019-01-26T18:18:00.090Z,17.30
2019-01-26T18:20:29.727Z,15.53
2019-01-26T18:23:00.411Z,15.93
2019-01-26T18:25:30.660Z,16.97
2019-01-26T18:27:59.248Z,19.70
2019-01-26T18:30:30.513Z,16.43
2019-01-26T18:32:59.169Z,18.70
2019-01-26T18:35:27.788Z,14.30
2019-01-26T18:37:56.457Z,14.07
2019-01-26T18:40:28.092Z,16.10
2019-01-26T18:42:56.680Z,15.27
2019-01-26T18:45:27.707Z,17.07
2019-01-26T18:47:56.762Z,15.43
2019-01-26T18:50:27.625Z,15.93
2019-01-26T18:52:56.296Z,14.90
2019-01-26T18:55:24.967Z,16.27
2019-01-26T18:57:53.639Z,14.43
2019-01-26T19:00:25.415Z,13.17
2019-01-26T19:03:00.560Z,12.63
2019-01-26T19:05:31.479Z,16.00
2019-01-26T19:08:00.073Z,11.53
2019-01-26T19:10:28.673Z,15.90
2019-01-26T19:12:57.258Z,14.67
2019-01-26T19:15:26.191Z,12.67
2019-01-26T19:17:54.776Z,12.53
2019-01-26T19:20:23.642Z,11.30
2019-01-26T19:22:52.358Z,13.20
2019-01-26T19:25:21.036Z,10.73
2019-01-26T19:27:49.825Z,12.23
2019-01-26T19:30:20.982Z,12.20
2019-01-26T19:32:49.639Z,10.67
2019-01-26T19:35:18.438Z,10.13
2019-01-26T19:37:47.179Z,13.07
2019-01-26T19:40:21.194Z,10.23
2019-01-26T19:42:50.323Z,9.33
2019-01-26T19:45:23.237Z,13.40
2019-01-26T19:47:51.823Z,13.40
2019-01-26T19:50:22.357Z,12.27
2019-01-26T19:52:51.377Z,11.60
2019-01-26T19:55:21.895Z,12.07
2019-01-26T19:57:50.560Z,10.33
2019-01-26T20:00:19.232Z,8.97
2019-01-26T20:02:47.925Z,10.23
2019-01-26T20:05:21.773Z,10.03
2019-01-26T20:08:08.436Z,11.33
2019-01-26T20:10:37.122Z,10.73
2019-01-26T20:13:05.855Z,11.13
2019-01-26T20:15:34.524Z,13.67
2019-01-26T20:18:03.375Z,11.60
2019-01-26T20:20:39.233Z,12.63
2019-01-26T20:23:08.340Z,11.67
2019-01-26T20:25:37.012Z,10.60
2019-01-26T20:28:06.140Z,10.50
2019-01-26T20:30:35.483Z,9.53
2019-01-26T20:33:04.718Z,10.50
2019-01-26T20:35:33.409Z,11.63
2019-01-26T20:38:02.032Z,9.60
2019-01-26T20:40:31.175Z,9.13
2019-01-26T20:43:00.227Z,12.63
2019-01-26T20:45:30.439Z,10.17
2019-01-26T20:47:59.082Z,9.30
2019-01-26T20:50:27.826Z,12.83
2019-01-26T20:52:56.483Z,10.23
2019-01-26T20:55:25.159Z,10.33
2019-01-26T20:57:53.948Z,13.27
2019-01-26T21:00:28.415Z,11.57
2019-01-26T21:02:57.002Z,14.10
2019-01-26T21:05:25.864Z,12.47
2019-01-26T21:07:54.792Z,12.53
2019-01-26T21:10:28.769Z,11.53
2019-01-26T21:12:57.957Z,13.70
2019-01-26T21:15:26.717Z,13.97
2019-01-26T21:17:55.300Z,13.87
2019-01-26T21:20:25.748Z,12.93
2019-01-26T21:22:54.452Z,17.17
2019-01-26T21:25:23.141Z,14.60
2019-01-26T21:27:51.726Z,17.77
2019-01-26T21:30:23.481Z,19.47
2019-01-26T21:32:52.069Z,18.20
2019-01-26T21:35:20.999Z,19.07
2019-01-26T21:37:49.937Z,17.53
2019-01-26T21:40:26.429Z,16.60
2019-01-26T21:42:55.074Z,20.40
2019-01-26T21:45:23.947Z,18.77
2019-01-26T21:47:52.599Z,19.17
2019-01-26T21:50:23.821Z,22.27
2019-01-26T21:52:52.478Z,22.73
2019-01-26T21:55:21.274Z,20.07
2019-01-26T21:57:49.860Z,19.60
2019-01-26T22:00:21.275Z,22.20
2019-01-26T22:02:50.045Z,24.20
2019-01-26T22:05:18.764Z,22.83
2019-01-26T22:07:47.389Z,22.07
2019-01-26T22:10:21.380Z,26.30
2019-01-26T22:12:49.999Z,25.17
2019-01-26T22:15:20.433Z,33.10
2019-01-26T22:17:49.047Z,40.23
2019-01-26T22:20:20.170Z,26.20
2019-01-26T22:22:49.875Z,25.83
2019-01-26T22:25:19.225Z,27.57
2019-01-26T22:27:48.176Z,22.37
2019-01-26T22:30:31.512Z,21.23
2019-01-26T22:33:00.357Z,20.73
2019-01-26T22:35:29.176Z,22.37
2019-01-26T22:37:58.478Z,21.30
2019-01-26T22:40:32.124Z,19.47
2019-01-26T22:43:00.970Z,20.17
2019-01-26T22:45:29.749Z,19.67
2019-01-26T22:47:58.365Z,18.37
2019-01-26T22:50:28.879Z,15.47
2019-01-26T22:52:57.738Z,23.07
2019-01-26T22:55:26.788Z,23.23
2019-01-26T22:57:56.237Z,18.97
2019-01-26T23:00:47.811Z,16.87
2019-01-26T23:03:17.682Z,18.50
2019-01-26T23:05:49.706Z,17.93
2019-01-26T23:08:24.297Z,18.43
2019-01-26T23:11:08.122Z,21.10
2019-01-26T23:13:38.730Z,14.77
2019-01-26T23:16:37.531Z,18.73
2019-01-26T23:19:21.161Z,17.70
2019-01-26T23:21:58.968Z,13.03
2019-01-26T23:24:48.850Z,19.07
2019-01-26T23:27:32.463Z,17.50
2019-01-26T23:30:19.412Z,16.70
2019-01-26T23:32:48.024Z,18.23
2019-01-26T23:35:16.977Z,19.23
2019-01-26T23:37:45.930Z,16.90
2019-01-26T23:40:14.761Z,20.90
2019-01-26T23:42:43.388Z,16.53
2019-01-26T23:45:12.543Z,17.53
2019-01-26T23:47:41.155Z,26.17
2019-01-26T23:50:09.969Z,22.33
2019-01-26T23:52:38.598Z,16.53
2019-01-26T23:55:09.821Z,16.93
2019-01-26T23:57:38.671Z,15.93
